Aviation Digital Data Service (ADDS)

Output produced by METARs form (1644 UTC 24 August 2019)
found at http://www.aviationweather.gov/metar/data/
 
METAR text: ZHHH 241600Z 04004MPS CAVOK 29/20 Q1006 NOSIG
Conditions at: ZHHH (WUHAN/NANHU , CN) observed 1600 UTC 24 August 2019
Temperature: 29.0°C (84°F)
Dewpoint: 20.0°C (68°F) [RH = 58%]
Pressure (altimeter): 29.70 inches Hg (1006.0 mb)
Winds: from the NE (40 degrees) at 9 MPH (8 knots; 4.1 m/s)
Visibility: 6 or more miles (10+ km)
Ceiling: ceiling and visibility are OK
Clouds: unknown
Weather: no significant weather observed at this time

METAR text: ZHHH 241500Z 04005MPS CAVOK 30/20 Q1007 NOSIG
Conditions at: ZHHH (WUHAN/NANHU , CN) observed 1500 UTC 24 August 2019
Temperature: 30.0°C (86°F)
Dewpoint: 20.0°C (68°F) [RH = 55%]
Pressure (altimeter): 29.73 inches Hg (1007.0 mb)
Winds: from the NE (40 degrees) at 12 MPH (10 knots; 5.1 m/s)
Visibility: 6 or more miles (10+ km)
Ceiling: ceiling and visibility are OK
Clouds: unknown
Weather: no significant weather observed at this time

METAR text: ZHHH 241400Z 04006MPS CAVOK 31/20 Q1006 NOSIG
Conditions at: ZHHH (WUHAN/NANHU , CN) observed 1400 UTC 24 August 2019
Temperature: 31.0°C (88°F)
Dewpoint: 20.0°C (68°F) [RH = 52%]
Pressure (altimeter): 29.70 inches Hg (1006.0 mb)
Winds: from the NE (40 degrees) at 14 MPH (12 knots; 6.2 m/s)
Visibility: 6 or more miles (10+ km)
Ceiling: ceiling and visibility are OK
Clouds: unknown
Weather: no significant weather observed at this time

METAR text: ZHHH 241300Z 04004MPS CAVOK 32/21 Q1006 NOSIG
Conditions at: ZHHH (WUHAN/NANHU , CN) observed 1300 UTC 24 August 2019
Temperature: 32.0°C (90°F)
Dewpoint: 21.0°C (70°F) [RH = 52%]
Pressure (altimeter): 29.70 inches Hg (1006.0 mb)
Winds: from the NE (40 degrees) at 9 MPH (8 knots; 4.1 m/s)
Visibility: 6 or more miles (10+ km)
Ceiling: ceiling and visibility are OK
Clouds: unknown
Weather: no significant weather observed at this time

METAR text: ZHHH 241200Z 03004MPS CAVOK 33/21 Q1006 NOSIG
Conditions at: ZHHH (WUHAN/NANHU , CN) observed 1200 UTC 24 August 2019
Temperature: 33.0°C (91°F)
Dewpoint: 21.0°C (70°F) [RH = 49%]
Pressure (altimeter): 29.70 inches Hg (1006.0 mb)
Winds: from the NNE (30 degrees) at 9 MPH (8 knots; 4.1 m/s)
Visibility: 6 or more miles (10+ km)
Ceiling: ceiling and visibility are OK
Clouds: unknown
Weather: no significant weather observed at this time

METAR text: ZHHH 241100Z VRB01MPS CAVOK 34/25 Q1005 NOSIG
Conditions at: ZHHH (WUHAN/NANHU , CN) observed 1100 UTC 24 August 2019
Temperature: 34.0°C (93°F)
Dewpoint: 25.0°C (77°F) [RH = 60%]
Pressure (altimeter): 29.68 inches Hg (1005.0 mb)
Winds: variable direction winds at 2 MPH (2 knots; 1.0 m/s)
Visibility: 6 or more miles (10+ km)
Ceiling: ceiling and visibility are OK
Clouds: unknown
Weather: no significant weather observed at this time

METAR text: ZHHH 241000Z 28002MPS 240V330 9999 FEW040 36/24 Q1005 NOSIG
Conditions at: ZHHH (WUHAN/NANHU , CN) observed 1000 UTC 24 August 2019
Temperature: 36.0°C (97°F)
Dewpoint: 24.0°C (75°F) [RH = 50%]
Pressure (altimeter): 29.68 inches Hg (1005.0 mb)
Winds: from the W (280 degrees) at 5 MPH (4 knots; 2.1 m/s)
Visibility: 6 or more miles (10+ km)
Ceiling: at least 12,000 feet AGL
Clouds: few clouds at 4000 feet AGL
Weather: no significant weather observed at this time

METAR text: ZHHH 240900Z 26002MPS 230V290 CAVOK 36/23 Q1005 NOSIG
Conditions at: ZHHH (WUHAN/NANHU , CN) observed 0900 UTC 24 August 2019
Temperature: 36.0°C (97°F)
Dewpoint: 23.0°C (73°F) [RH = 47%]
Pressure (altimeter): 29.68 inches Hg (1005.0 mb)
Winds: from the W (260 degrees) at 5 MPH (4 knots; 2.1 m/s)
Visibility: 6 or more miles (10+ km)
Ceiling: ceiling and visibility are OK
Clouds: unknown
Weather: no significant weather observed at this time

METAR text: ZHHH 240800Z 26003MPS 9999 FEW033TCU 36/23 Q1005 NOSIG
Conditions at: ZHHH (WUHAN/NANHU , CN) observed 0800 UTC 24 August 2019
Temperature: 36.0°C (97°F)
Dewpoint: 23.0°C (73°F) [RH = 47%]
Pressure (altimeter): 29.68 inches Hg (1005.0 mb)
Winds: from the W (260 degrees) at 7 MPH (6 knots; 3.1 m/s)
Visibility: 6 or more miles (10+ km)
Ceiling: at least 12,000 feet AGL
Clouds: few clouds at 3300 feet AGL
Weather: no significant weather observed at this time

METAR text: ZHHH 240700Z 25003MPS 210V290 9999 FEW033TCU SCT040 36/22 Q1006 NOSIG
Conditions at: ZHHH (WUHAN/NANHU , CN) observed 0700 UTC 24 August 2019
Temperature: 36.0°C (97°F)
Dewpoint: 22.0°C (72°F) [RH = 45%]
Pressure (altimeter): 29.70 inches Hg (1006.0 mb)
Winds: from the WSW (250 degrees) at 7 MPH (6 knots; 3.1 m/s)
Visibility: 6 or more miles (10+ km)
Ceiling: at least 12,000 feet AGL
Clouds: few clouds at 3300 feet AGL
scattered clouds at 4000 feet AGL
Weather: no significant weather observed at this time

METAR text: ZHHH 240600Z 04004MPS 300V090 9999 SCT040 36/22 Q1006 NOSIG
Conditions at: ZHHH (WUHAN/NANHU , CN) observed 0600 UTC 24 August 2019
Temperature: 36.0°C (97°F)
Dewpoint: 22.0°C (72°F) [RH = 45%]
Pressure (altimeter): 29.70 inches Hg (1006.0 mb)
Winds: from the NE (40 degrees) at 9 MPH (8 knots; 4.1 m/s)
Visibility: 6 or more miles (10+ km)
Ceiling: at least 12,000 feet AGL
Clouds: scattered clouds at 4000 feet AGL
Weather: no significant weather observed at this time

METAR text: ZHHH 240500Z 22003MPS 170V260 9999 FEW040 35/22 Q1007 NOSIG
Conditions at: ZHHH (WUHAN/NANHU , CN) observed 0500 UTC 24 August 2019
Temperature: 35.0°C (95°F)
Dewpoint: 22.0°C (72°F) [RH = 47%]
Pressure (altimeter): 29.73 inches Hg (1007.0 mb)
Winds: from the SW (220 degrees) at 7 MPH (6 knots; 3.1 m/s)
Visibility: 6 or more miles (10+ km)
Ceiling: at least 12,000 feet AGL
Clouds: few clouds at 4000 feet AGL
Weather: no significant weather observed at this time

METAR text: ZHHH 240400Z 27003MPS 240V310 CAVOK 34/23 Q1008 NOSIG
Conditions at: ZHHH (WUHAN/NANHU , CN) observed 0400 UTC 24 August 2019
Temperature: 34.0°C (93°F)
Dewpoint: 23.0°C (73°F) [RH = 53%]
Pressure (altimeter): 29.76 inches Hg (1008.0 mb)
Winds: from the W (270 degrees) at 7 MPH (6 knots; 3.1 m/s)
Visibility: 6 or more miles (10+ km)
Ceiling: ceiling and visibility are OK
Clouds: unknown
Weather: no significant weather observed at this time

METAR text: ZHHH 240300Z 29003MPS 240V330 CAVOK 33/23 Q1009 NOSIG
Conditions at: ZHHH (WUHAN/NANHU , CN) observed 0300 UTC 24 August 2019
Temperature: 33.0°C (91°F)
Dewpoint: 23.0°C (73°F) [RH = 56%]
Pressure (altimeter): 29.79 inches Hg (1009.0 mb)
Winds: from the WNW (290 degrees) at 7 MPH (6 knots; 3.1 m/s)
Visibility: 6 or more miles (10+ km)
Ceiling: ceiling and visibility are OK
Clouds: unknown
Weather: no significant weather observed at this time

METAR text: ZHHH 240200Z 12002MPS 030V190 CAVOK 33/21 Q1009 NOSIG
Conditions at: ZHHH (WUHAN/NANHU , CN) observed 0200 UTC 24 August 2019
Temperature: 33.0°C (91°F)
Dewpoint: 21.0°C (70°F) [RH = 49%]
Pressure (altimeter): 29.79 inches Hg (1009.0 mb)
Winds: from the ESE (120 degrees) at 5 MPH (4 knots; 2.1 m/s)
Visibility: 6 or more miles (10+ km)
Ceiling: ceiling and visibility are OK
Clouds: unknown
Weather: no significant weather observed at this time

METAR text: ZHHH 240100Z 05002MPS 020V090 CAVOK 31/21 Q1009 NOSIG
Conditions at: ZHHH (WUHAN/NANHU , CN) observed 0100 UTC 24 August 2019
Temperature: 31.0°C (88°F)
Dewpoint: 21.0°C (70°F) [RH = 55%]
Pressure (altimeter): 29.79 inches Hg (1009.0 mb)
Winds: from the NE (50 degrees) at 5 MPH (4 knots; 2.1 m/s)
Visibility: 6 or more miles (10+ km)
Ceiling: ceiling and visibility are OK
Clouds: unknown
Weather: no significant weather observed at this time

METAR text: ZHHH 240000Z 06003MPS 020V080 CAVOK 29/21 Q1009 NOSIG
Conditions at: ZHHH (WUHAN/NANHU , CN) observed 0000 UTC 24 August 2019
Temperature: 29.0°C (84°F)
Dewpoint: 21.0°C (70°F) [RH = 62%]
Pressure (altimeter): 29.79 inches Hg (1009.0 mb)
Winds: from the ENE (60 degrees) at 7 MPH (6 knots; 3.1 m/s)
Visibility: 6 or more miles (10+ km)
Ceiling: ceiling and visibility are OK
Clouds: unknown
Weather: no significant weather observed at this time

METAR text: ZHHH 232300Z 08003MPS CAVOK 29/21 Q1009 NOSIG
Conditions at: ZHHH (WUHAN/NANHU , CN) observed 2300 UTC 23 August 2019
Temperature: 29.0°C (84°F)
Dewpoint: 21.0°C (70°F) [RH = 62%]
Pressure (altimeter): 29.79 inches Hg (1009.0 mb)
Winds: from the E (80 degrees) at 7 MPH (6 knots; 3.1 m/s)
Visibility: 6 or more miles (10+ km)
Ceiling: ceiling and visibility are OK
Clouds: unknown
Weather: no significant weather observed at this time

METAR text: ZHHH 232200Z 05002MPS 350V080 CAVOK 28/21 Q1009 NOSIG
Conditions at: ZHHH (WUHAN/NANHU , CN) observed 2200 UTC 23 August 2019
Temperature: 28.0°C (82°F)
Dewpoint: 21.0°C (70°F) [RH = 66%]
Pressure (altimeter): 29.79 inches Hg (1009.0 mb)
Winds: from the NE (50 degrees) at 5 MPH (4 knots; 2.1 m/s)
Visibility: 6 or more miles (10+ km)
Ceiling: ceiling and visibility are OK
Clouds: unknown
Weather: no significant weather observed at this time

METAR text: ZHHH 232100Z 06003MPS CAVOK 28/21 Q1009 NOSIG
Conditions at: ZHHH (WUHAN/NANHU , CN) observed 2100 UTC 23 August 2019
Temperature: 28.0°C (82°F)
Dewpoint: 21.0°C (70°F) [RH = 66%]
Pressure (altimeter): 29.79 inches Hg (1009.0 mb)
Winds: from the ENE (60 degrees) at 7 MPH (6 knots; 3.1 m/s)
Visibility: 6 or more miles (10+ km)
Ceiling: ceiling and visibility are OK
Clouds: unknown
Weather: no significant weather observed at this time

METAR text: ZHHH 232000Z 04003MPS CAVOK 27/21 Q1008 NOSIG
Conditions at: ZHHH (WUHAN/NANHU , CN) observed 2000 UTC 23 August 2019
Temperature: 27.0°C (81°F)
Dewpoint: 21.0°C (70°F) [RH = 70%]
Pressure (altimeter): 29.76 inches Hg (1008.0 mb)
Winds: from the NE (40 degrees) at 7 MPH (6 knots; 3.1 m/s)
Visibility: 6 or more miles (10+ km)
Ceiling: ceiling and visibility are OK
Clouds: unknown
Weather: no significant weather observed at this time

METAR text: ZHHH 231900Z 04002MPS 360V060 CAVOK 28/22 Q1008 NOSIG
Conditions at: ZHHH (WUHAN/NANHU , CN) observed 1900 UTC 23 August 2019
Temperature: 28.0°C (82°F)
Dewpoint: 22.0°C (72°F) [RH = 70%]
Pressure (altimeter): 29.76 inches Hg (1008.0 mb)
Winds: from the NE (40 degrees) at 5 MPH (4 knots; 2.1 m/s)
Visibility: 6 or more miles (10+ km)
Ceiling: ceiling and visibility are OK
Clouds: unknown
Weather: no significant weather observed at this time

METAR text: ZHHH 231800Z 04002MPS CAVOK 28/22 Q1008 NOSIG
Conditions at: ZHHH (WUHAN/NANHU , CN) observed 1800 UTC 23 August 2019
Temperature: 28.0°C (82°F)
Dewpoint: 22.0°C (72°F) [RH = 70%]
Pressure (altimeter): 29.76 inches Hg (1008.0 mb)
Winds: from the NE (40 degrees) at 5 MPH (4 knots; 2.1 m/s)
Visibility: 6 or more miles (10+ km)
Ceiling: ceiling and visibility are OK
Clouds: unknown
Weather: no significant weather observed at this time

METAR text: ZHHH 231700Z 06004MPS CAVOK 29/22 Q1008 NOSIG
Conditions at: ZHHH (WUHAN/NANHU , CN) observed 1700 UTC 23 August 2019
Temperature: 29.0°C (84°F)
Dewpoint: 22.0°C (72°F) [RH = 66%]
Pressure (altimeter): 29.76 inches Hg (1008.0 mb)
Winds: from the ENE (60 degrees) at 9 MPH (8 knots; 4.1 m/s)
Visibility: 6 or more miles (10+ km)
Ceiling: ceiling and visibility are OK
Clouds: unknown
Weather: no significant weather observed at this time

METAR text: ZHHH 231600Z 04004MPS CAVOK 28/22 Q1009 NOSIG
Conditions at: ZHHH (WUHAN/NANHU , CN) observed 1600 UTC 23 August 2019
Temperature: 28.0°C (82°F)
Dewpoint: 22.0°C (72°F) [RH = 70%]
Pressure (altimeter): 29.79 inches Hg (1009.0 mb)
Winds: from the NE (40 degrees) at 9 MPH (8 knots; 4.1 m/s)
Visibility: 6 or more miles (10+ km)
Ceiling: ceiling and visibility are OK
Clouds: unknown
Weather: no significant weather observed at this time

METAR text: ZHHH 231500Z 04003MPS CAVOK 29/22 Q1009 NOSIG
Conditions at: ZHHH (WUHAN/NANHU , CN) observed 1500 UTC 23 August 2019
Temperature: 29.0°C (84°F)
Dewpoint: 22.0°C (72°F) [RH = 66%]
Pressure (altimeter): 29.79 inches Hg (1009.0 mb)
Winds: from the NE (40 degrees) at 7 MPH (6 knots; 3.1 m/s)
Visibility: 6 or more miles (10+ km)
Ceiling: ceiling and visibility are OK
Clouds: unknown
Weather: no significant weather observed at this time

METAR text: ZHHH 231400Z 04004MPS CAVOK 30/23 Q1009 NOSIG
Conditions at: ZHHH (WUHAN/NANHU , CN) observed 1400 UTC 23 August 2019
Temperature: 30.0°C (86°F)
Dewpoint: 23.0°C (73°F) [RH = 66%]
Pressure (altimeter): 29.79 inches Hg (1009.0 mb)
Winds: from the NE (40 degrees) at 9 MPH (8 knots; 4.1 m/s)
Visibility: 6 or more miles (10+ km)
Ceiling: ceiling and visibility are OK
Clouds: unknown
Weather: no significant weather observed at this time

METAR text: ZHHH 231300Z 02002MPS CAVOK 30/24 Q1008 NOSIG
Conditions at: ZHHH (WUHAN/NANHU , CN) observed 1300 UTC 23 August 2019
Temperature: 30.0°C (86°F)
Dewpoint: 24.0°C (75°F) [RH = 70%]
Pressure (altimeter): 29.76 inches Hg (1008.0 mb)
Winds: from the NNE (20 degrees) at 5 MPH (4 knots; 2.1 m/s)
Visibility: 6 or more miles (10+ km)
Ceiling: ceiling and visibility are OK
Clouds: unknown
Weather: no significant weather observed at this time

METAR text: ZHHH 231200Z 03002MPS CAVOK 31/24 Q1008 NOSIG
Conditions at: ZHHH (WUHAN/NANHU , CN) observed 1200 UTC 23 August 2019
Temperature: 31.0°C (88°F)
Dewpoint: 24.0°C (75°F) [RH = 66%]
Pressure (altimeter): 29.76 inches Hg (1008.0 mb)
Winds: from the NNE (30 degrees) at 5 MPH (4 knots; 2.1 m/s)
Visibility: 6 or more miles (10+ km)
Ceiling: ceiling and visibility are OK
Clouds: unknown
Weather: no significant weather observed at this time

METAR text: ZHHH 231100Z 03002MPS CAVOK 32/24 Q1008 NOSIG
Conditions at: ZHHH (WUHAN/NANHU , CN) observed 1100 UTC 23 August 2019
Temperature: 32.0°C (90°F)
Dewpoint: 24.0°C (75°F) [RH = 63%]
Pressure (altimeter): 29.76 inches Hg (1008.0 mb)
Winds: from the NNE (30 degrees) at 5 MPH (4 knots; 2.1 m/s)
Visibility: 6 or more miles (10+ km)
Ceiling: ceiling and visibility are OK
Clouds: unknown
Weather: no significant weather observed at this time

METAR text: ZHHH 231000Z 06004MPS CAVOK 33/23 Q1007 NOSIG
Conditions at: ZHHH (WUHAN/NANHU , CN) observed 1000 UTC 23 August 2019
Temperature: 33.0°C (91°F)
Dewpoint: 23.0°C (73°F) [RH = 56%]
Pressure (altimeter): 29.73 inches Hg (1007.0 mb)
Winds: from the ENE (60 degrees) at 9 MPH (8 knots; 4.1 m/s)
Visibility: 6 or more miles (10+ km)
Ceiling: ceiling and visibility are OK
Clouds: unknown
Weather: no significant weather observed at this time

METAR text: ZHHH 230900Z 34002MPS 260V030 9999 FEW030TCU 34/24 Q1008 NOSIG
Conditions at: ZHHH (WUHAN/NANHU , CN) observed 0900 UTC 23 August 2019
Temperature: 34.0°C (93°F)
Dewpoint: 24.0°C (75°F) [RH = 56%]
Pressure (altimeter): 29.76 inches Hg (1008.0 mb)
Winds: from the NNW (340 degrees) at 5 MPH (4 knots; 2.1 m/s)
Visibility: 6 or more miles (10+ km)
Ceiling: at least 12,000 feet AGL
Clouds: few clouds at 3000 feet AGL
Weather: no significant weather observed at this time

METAR text: ZHHH 230800Z 12002MPS 040V160 9999 FEW030TCU 33/24 Q1008 NOSIG
Conditions at: ZHHH (WUHAN/NANHU , CN) observed 0800 UTC 23 August 2019
Temperature: 33.0°C (91°F)
Dewpoint: 24.0°C (75°F) [RH = 59%]
Pressure (altimeter): 29.76 inches Hg (1008.0 mb)
Winds: from the ESE (120 degrees) at 5 MPH (4 knots; 2.1 m/s)
Visibility: 6 or more miles (10+ km)
Ceiling: at least 12,000 feet AGL
Clouds: few clouds at 3000 feet AGL
Weather: no significant weather observed at this time

METAR text: ZHHH 230700Z 27003MPS 240V340 CAVOK 34/24 Q1008 NOSIG
Conditions at: ZHHH (WUHAN/NANHU , CN) observed 0700 UTC 23 August 2019
Temperature: 34.0°C (93°F)
Dewpoint: 24.0°C (75°F) [RH = 56%]
Pressure (altimeter): 29.76 inches Hg (1008.0 mb)
Winds: from the W (270 degrees) at 7 MPH (6 knots; 3.1 m/s)
Visibility: 6 or more miles (10+ km)
Ceiling: ceiling and visibility are OK
Clouds: unknown
Weather: no significant weather observed at this time

METAR text: ZHHH 230600Z 31002MPS 250V010 CAVOK 33/23 Q1008 NOSIG
Conditions at: ZHHH (WUHAN/NANHU , CN) observed 0600 UTC 23 August 2019
Temperature: 33.0°C (91°F)
Dewpoint: 23.0°C (73°F) [RH = 56%]
Pressure (altimeter): 29.76 inches Hg (1008.0 mb)
Winds: from the NW (310 degrees) at 5 MPH (4 knots; 2.1 m/s)
Visibility: 6 or more miles (10+ km)
Ceiling: ceiling and visibility are OK
Clouds: unknown
Weather: no significant weather observed at this time

METAR text: ZHHH 230500Z VRB02MPS 8000 FEW033TCU 32/24 Q1009 NOSIG
Conditions at: ZHHH (WUHAN/NANHU , CN) observed 0500 UTC 23 August 2019
Temperature: 32.0°C (90°F)
Dewpoint: 24.0°C (75°F) [RH = 63%]
Pressure (altimeter): 29.79 inches Hg (1009.0 mb)
Winds: variable direction winds at 5 MPH (4 knots; 2.1 m/s)
Visibility: 5 miles ( 8 km)
Ceiling: at least 12,000 feet AGL
Clouds: few clouds at 3300 feet AGL
Weather: no significant weather observed at this time

Forecast for: ZHHH (WUHAN/NANHU , CN)
Text: TAF ZHHH 241505Z 2418/2518 05004MPS 6000 NSC TX36/2507Z TN26/2422Z
Forecast period: 1800 UTC 24 August 2019 to 1800 UTC 25 August 2019
Forecast type: FROM: standard forecast or significant change
Winds: from the NE (50 degrees) at 9 MPH (8 knots; 4.1 m/s)
Visibility: 4 miles (6 km)
Ceiling: unknown
Clouds: missing
Weather: no significant weather forecast for this period